Report METAR

 

LIML - Milano/Linate, Italy
Distance from station: E 6km
Dati ricevuti: 27/02/2020 13:50
Sereno
Sereno
 Vento da ENE
Vento: ENE 6 km/h
Temperatura: 11°C
P.to Rugiada: -7°C
Umidità: 28%
Barometro: 1008 hPa
Summary: Sereno
Visibility: superiore a 10 km
2020/02/27 12:50 LIML 271250Z 06003KT 010V120 CAVOK 11/M07 Q1008 NOSIG
LIMC - Milano/Malpensa, Italy
Distance from station: ONO 40km
Dati ricevuti: 27/02/2020 13:50
Sereno
Sereno
 Vento da OSO
Vento: OSO 9 km/h
Temperatura: 11°C
P.to Rugiada: -11°C
Umidità: 20%
Barometro: 1008 hPa
Summary: Sereno
Visibility: superiore a 10 km
2020/02/27 12:50 LIMC 271250Z 24005KT 200V290 CAVOK 11/M11 Q1008 NOSIG
 
LIMN - Cameri (it-Afb), Italy
Distance from station: O 41km
Dati ricevuti: 27/02/2020 13:55
Sereno
Sereno
 Vento da Variabile
Vento: Variabile 4 km/h
Temperatura: 11°C
P.to Rugiada: -8°C
Umidità: 26%
Barometro: 1008 hPa
Summary: Sereno
Visibility: superiore a 10 km
2020/02/27 12:55 LIMN 271255Z VRB02KT CAVOK 11/M08 Q1008 RMK BKN BKN090 SCT200 VIS MIN 9999 BLU
LIME - Bergamo/Orio Ser, Italy
Distance from station: ENE 45km
Dati ricevuti: 27/02/2020 13:50
Parz. nuvoloso
Parz. nuvoloso
 Vento da SSE
Vento: SSE 7 km/h
Temperatura: 10°C
Temperatura Vento: 9°C
P.to Rugiada: -11°C
Umidità: 22%
Barometro: 1008 hPa
Nuvole: Parz. nuvoloso
Visibility: 10 km
Cloud details: Parz. nuvoloso 3048 m
2020/02/27 12:50 LIME 271250Z 16004KT 140V210 9999 SCT100 10/M11 Q1008 NOSIG